Time;durP1;ratioP1;P1;durP2;ratioP2;P2;SDS_P1;SDS_P2;PMS_P1;PMS_P2;Temp;Humidity;BMP_temperature;BMP_pressure;BME280_temperature;BME280_humidity;BME280_pressure;Samples;Min_cycle;Max_cycle;Signal;HPM_P1;HPM_P2
2022/05/13 00:00:07;;;;;;;5.60;4.70;;;9.50;99.90;;;;;;5050417;28;20371;-84
2022/05/13 00:02:33;;;;;;;6.07;5.45;;;9.40;99.90;;;;;;5032412;28;20376;-84
2022/05/13 00:05:00;;;;;;;5.38;4.88;;;9.40;99.90;;;;;;5050229;28;20372;-82
2022/05/13 00:07:26;;;;;;;6.00;5.25;;;9.30;99.90;;;;;;5050085;28;20391;-84
2022/05/13 00:09:57;;;;;;;5.85;5.35;;;9.30;99.90;;;;;;5050446;28;20429;-83
2022/05/13 00:12:24;;;;;;;6.13;5.32;;;9.20;99.90;;;;;;5032430;28;20387;-83
2022/05/13 00:14:51;;;;;;;5.87;5.30;;;9.10;99.90;;;;;;5049754;28;20749;-83
2022/05/13 00:17:18;;;;;;;6.35;5.22;;;9.00;99.90;;;;;;5032262;28;20865;-83
2022/05/13 00:19:43;;;;;;;6.65;5.65;;;9.00;99.90;;;;;;5032373;28;20379;-85
2022/05/13 00:22:09;;;;;;;7.65;5.95;;;9.00;99.90;;;;;;5032149;28;20376;-84
2022/05/13 00:24:35;;;;;;;6.80;6.20;;;8.90;99.90;;;;;;5049967;28;20454;-84
2022/05/13 00:27:01;;;;;;;6.50;5.90;;;8.90;99.90;;;;;;5031786;28;20382;-82
2022/05/13 00:29:27;;;;;;;6.20;5.60;;;8.90;99.90;;;;;;5032497;28;20395;-84
2022/05/13 00:31:53;;;;;;;7.03;5.70;;;8.90;99.90;;;;;;5050122;28;20368;-83
2022/05/13 00:34:19;;;;;;;6.13;5.63;;;8.80;99.90;;;;;;5049934;28;20495;-83
2022/05/13 00:36:44;;;;;;;6.28;5.68;;;8.80;99.90;;;;;;5032333;28;20376;-83
2022/05/13 00:39:10;;;;;;;7.60;6.00;;;8.80;99.90;;;;;;5032030;28;20378;-84
2022/05/13 00:41:36;;;;;;;6.38;5.88;;;8.70;99.90;;;;;;5031997;28;20901;-82
2022/05/13 00:44:03;;;;;;;7.13;6.30;;;8.70;99.90;;;;;;5031629;28;20470;-84
2022/05/13 00:46:28;;;;;;;7.85;6.95;;;8.60;99.90;;;;;;5049957;28;20371;-83
2022/05/13 00:48:56;;;;;;;7.17;6.47;;;8.70;99.90;;;;;;5031747;28;20391;-83
2022/05/13 00:51:37;;;;;;;7.22;6.63;;;8.60;99.90;;;;;;5031479;28;20790;-84
2022/05/13 00:54:08;;;;;;;7.43;6.83;;;8.60;99.90;;;;;;5049709;28;20398;-83
2022/05/13 00:56:35;;;;;;;7.30;6.60;;;8.60;99.90;;;;;;5031959;28;20490;-84
2022/05/13 00:59:05;;;;;;;7.22;6.57;;;8.50;99.90;;;;;;5049595;28;20379;-83
2022/05/13 01:01:31;;;;;;;7.25;6.55;;;8.50;99.90;;;;;;5049870;28;20402;-84
2022/05/13 01:04:04;;;;;;;6.75;6.13;;;8.40;99.90;;;;;;5049362;28;20390;-84
2022/05/13 01:06:30;;;;;;;7.60;6.95;;;8.40;99.90;;;;;;5049658;28;20485;-83
2022/05/13 01:08:56;;;;;;;7.70;7.00;;;8.30;99.90;;;;;;5049316;28;20371;-84
2022/05/13 01:11:25;;;;;;;8.20;7.50;;;8.40;99.90;;;;;;5049701;28;20376;-82
2022/05/13 01:13:57;;;;;;;8.37;7.57;;;8.40;99.90;;;;;;5047961;28;20487;-84
2022/05/13 01:16:23;;;;;;;9.10;8.07;;;8.30;99.90;;;;;;5031625;28;20849;-84
2022/05/13 01:18:49;;;;;;;7.95;7.25;;;8.30;99.90;;;;;;5031724;28;20379;-83
2022/05/13 01:21:24;;;;;;;8.35;7.55;;;8.30;99.90;;;;;;5049398;28;20857;-84
2022/05/13 01:23:52;;;;;;;8.43;7.68;;;8.30;99.90;;;;;;5026180;28;20371;-85
2022/05/13 01:26:20;;;;;;;8.60;7.88;;;8.20;99.90;;;;;;5032114;28;20777;-83
2022/05/13 01:28:50;;;;;;;10.30;8.02;;;8.20;99.90;;;;;;5035217;28;20392;-83
2022/05/13 01:31:31;;;;;;;8.43;7.78;;;8.20;99.90;;;;;;5035577;28;20383;-84
2022/05/13 01:33:58;;;;;;;8.98;8.18;;;8.10;99.90;;;;;;5052732;28;20465;-83
2022/05/13 01:36:24;;;;;;;8.55;7.75;;;8.10;99.90;;;;;;5035094;28;20375;-83
2022/05/13 01:38:50;;;;;;;8.50;7.70;;;8.10;99.90;;;;;;5053142;28;20440;-84
2022/05/13 01:41:18;;;;;;;8.57;7.88;;;8.10;99.90;;;;;;5034664;28;20823;-84
2022/05/13 01:43:46;;;;;;;8.50;7.80;;;8.00;99.90;;;;;;5052734;28;20470;-84
2022/05/13 01:46:13;;;;;;;9.10;8.30;;;8.10;99.90;;;;;;5035080;28;20379;-83
2022/05/13 01:48:39;;;;;;;9.30;8.50;;;8.00;99.90;;;;;;5052829;28;20375;-83
2022/05/13 01:51:05;;;;;;;9.95;9.05;;;8.00;99.90;;;;;;5052754;28;20881;-84
2022/05/13 01:53:31;;;;;;;9.75;8.95;;;8.00;99.90;;;;;;5034865;28;20380;-83
2022/05/13 01:55:57;;;;;;;10.18;9.25;;;8.00;99.90;;;;;;5052827;28;20455;-83
2022/05/13 01:58:24;;;;;;;9.37;8.53;;;8.00;99.90;;;;;;5052640;28;20468;-83
2022/05/13 02:00:56;;;;;;;9.55;8.73;;;7.90;99.90;;;;;;5052571;28;20835;-84
2022/05/13 02:06:07;;;;;;;9.40;8.60;;;7.90;99.90;;;;;;5052886;28;20407;-83
2022/05/13 02:08:34;;;;;;;9.10;8.30;;;7.90;99.90;;;;;;5051563;28;20359;-83
2022/05/13 02:11:01;;;;;;;10.02;9.02;;;7.90;99.90;;;;;;5052606;28;20421;-83
2022/05/13 02:13:27;;;;;;;9.75;8.75;;;7.80;99.90;;;;;;5052165;28;20379;-84
2022/05/13 02:15:53;;;;;;;10.15;9.15;;;7.80;99.90;;;;;;5052453;28;20968;-83
2022/05/13 02:18:19;;;;;;;10.48;9.57;;;7.70;99.90;;;;;;5052327;28;20438;-83
2022/05/13 02:20:45;;;;;;;9.77;8.90;;;7.70;99.90;;;;;;5052449;28;20866;-84
2022/05/13 02:23:11;;;;;;;11.00;10.00;;;7.70;99.90;;;;;;5034457;28;20384;-84
2022/05/13 02:25:37;;;;;;;11.02;10.02;;;7.60;99.90;;;;;;5034370;28;20792;-84
2022/05/13 02:28:04;;;;;;;10.43;9.60;;;7.60;99.90;;;;;;5051658;28;20530;-83
2022/05/13 02:30:30;;;;;;;10.73;9.60;;;7.60;99.90;;;;;;5052256;28;20838;-83
2022/05/13 02:32:57;;;;;;;11.15;10.15;;;7.60;99.90;;;;;;5051712;28;20410;-84
2022/05/13 02:35:23;;;;;;;11.23;10.25;;;7.50;99.90;;;;;;5034075;28;20388;-84
2022/05/13 02:37:49;;;;;;;10.77;9.77;;;7.50;99.90;;;;;;5033911;28;20904;-83
2022/05/13 02:40:16;;;;;;;11.07;9.98;;;7.40;99.90;;;;;;5052061;28;20777;-84
2022/05/13 02:42:41;;;;;;;10.93;10.02;;;7.40;99.90;;;;;;5033897;28;20388;-84
2022/05/13 02:45:09;;;;;;;11.53;10.53;;;7.30;99.90;;;;;;5033789;28;20398;-83
2022/05/13 02:47:36;;;;;;;12.50;11.43;;;7.30;99.90;;;;;;5033967;28;20489;-82
2022/05/13 02:50:17;;;;;;;13.27;11.98;;;7.30;99.90;;;;;;5033765;28;20939;-82
2022/05/13 02:52:44;;;;;;;12.52;11.43;;;7.40;99.90;;;;;;5033738;28;20376;-84
2022/05/13 02:55:10;;;;;;;13.07;11.88;;;7.30;99.90;;;;;;5051171;28;20410;-83
2022/05/13 02:57:35;;;;;;;14.15;12.85;;;7.30;99.90;;;;;;5033872;28;20376;-83
2022/05/13 03:00:03;;;;;;;14.18;12.88;;;7.30;99.90;;;;;;5051622;28;20421;-84
2022/05/13 03:02:29;;;;;;;14.18;12.93;;;7.30;99.90;;;;;;5051520;28;20380;-83
2022/05/13 03:04:54;;;;;;;12.37;11.17;;;7.30;99.90;;;;;;5051495;28;20379;-83
2022/05/13 03:07:20;;;;;;;13.10;11.87;;;7.40;99.90;;;;;;5033501;28;20842;-83
2022/05/13 03:09:45;;;;;;;12.23;11.02;;;7.30;99.90;;;;;;5051852;28;20460;-83
2022/05/13 03:12:14;;;;;;;11.70;10.70;;;7.20;99.90;;;;;;5051271;28;20376;-83
2022/05/13 03:14:40;;;;;;;11.93;10.87;;;7.20;99.90;;;;;;5051208;28;20474;-84
2022/05/13 03:17:06;;;;;;;12.50;11.40;;;7.20;99.90;;;;;;5051420;28;20519;-83
2022/05/13 03:19:31;;;;;;;13.40;12.13;;;7.20;99.90;;;;;;5033618;28;20383;-83
2022/05/13 03:21:57;;;;;;;14.55;13.25;;;7.20;99.90;;;;;;5033467;28;20936;-84
2022/05/13 03:24:23;;;;;;;14.98;13.50;;;7.20;99.90;;;;;;5051259;28;20370;-83
2022/05/13 03:26:49;;;;;;;13.07;11.85;;;7.20;99.90;;;;;;5033376;28;20450;-83
2022/05/13 03:29:15;;;;;;;13.00;11.90;;;7.10;99.90;;;;;;5051080;28;20437;-84
2022/05/13 03:31:41;;;;;;;13.98;12.68;;;7.10;99.90;;;;;;5033353;28;20380;-84
2022/05/13 03:34:07;;;;;;;15.05;13.57;;;7.10;99.90;;;;;;5032974;28;20805;-83
2022/05/13 03:36:32;;;;;;;14.35;13.10;;;7.10;99.90;;;;;;5033326;28;20868;-83
2022/05/13 03:38:58;;;;;;;14.60;13.30;;;7.10;99.90;;;;;;5050650;28;20447;-84
2022/05/13 03:41:23;;;;;;;14.40;13.20;;;7.10;99.90;;;;;;5050889;28;20379;-84
2022/05/13 03:43:49;;;;;;;15.15;13.80;;;7.10;99.90;;;;;;5050514;28;20379;-83
2022/05/13 03:46:15;;;;;;;14.00;12.80;;;7.20;99.90;;;;;;5050901;28;20415;-84
2022/05/13 03:48:40;;;;;;;14.73;13.40;;;7.20;99.90;;;;;;5050533;28;20372;-83
2022/05/13 03:51:06;;;;;;;14.13;12.80;;;7.20;99.90;;;;;;5051044;28;20447;-83
2022/05/13 03:53:32;;;;;;;13.75;12.57;;;7.30;99.90;;;;;;5032713;28;20477;-85
2022/05/13 03:55:58;;;;;;;13.23;12.13;;;7.30;99.90;;;;;;5050873;28;20829;-83
2022/05/13 03:58:24;;;;;;;13.18;12.07;;;7.40;99.90;;;;;;5032769;28;20411;-83
2022/05/13 04:00:51;;;;;;;14.20;12.90;;;7.40;99.90;;;;;;5032727;28;20465;-84
2022/05/13 04:03:19;;;;;;;13.40;12.17;;;7.40;99.90;;;;;;5050592;28;20845;-84
2022/05/13 04:11:13;;;;;;;12.88;11.77;;;7.50;99.90;;;;;;5050433;28;20375;-83
2022/05/13 04:16:23;;;;;;;13.10;11.80;;;7.70;99.90;;;;;;5049980;28;20451;-83
2022/05/13 04:18:53;;;;;;;13.25;12.05;;;7.70;99.90;;;;;;5050506;28;20458;-83
2022/05/13 04:21:21;;;;;;;13.40;12.20;;;7.90;99.90;;;;;;5050433;28;20407;-84
2022/05/13 04:23:50;;;;;;;12.80;11.70;;;7.90;99.90;;;;;;5032576;28;20727;-84
2022/05/13 04:26:16;;;;;;;12.95;11.85;;;8.00;99.90;;;;;;5032125;28;20402;-84
2022/05/13 04:28:45;;;;;;;13.23;12.05;;;8.10;99.90;;;;;;5032469;28;20371;-84
2022/05/13 04:31:12;;;;;;;13.02;11.93;;;8.30;99.90;;;;;;5015636;28;20380;-84
2022/05/13 04:33:39;;;;;;;13.82;12.57;;;8.40;99.90;;;;;;5050261;28;20430;-84
2022/05/13 04:36:05;;;;;;;13.80;12.63;;;8.50;99.90;;;;;;5031843;28;20375;-84
2022/05/13 04:38:31;;;;;;;30.67;14.73;;;8.70;99.90;;;;;;5068434;28;20387;-84
2022/05/13 04:42:49;;;;;;;16.53;11.90;;;8.90;99.90;;;;;;5075567;28;20355;-85
2022/05/13 04:43:43;;;;;;;27.25;11.50;;;9.20;99.90;;;;;;5071462;28;20414;-84
2022/05/13 04:46:08;;;;;;;12.07;10.67;;;9.60;99.90;;;;;;5045477;28;20400;-85
2022/05/13 04:48:34;;;;;;;10.30;9.40;;;9.90;99.90;;;;;;5050039;28;20391;-83
2022/05/13 04:51:00;;;;;;;11.50;10.10;;;10.10;99.90;;;;;;5032006;28;20372;-84
2022/05/13 04:53:31;;;;;;;17.33;9.60;;;10.30;99.90;;;;;;5049722;28;20372;-84
2022/05/13 04:55:58;;;;;;;14.65;9.55;;;10.70;99.90;;;;;;5031929;28;20372;-84
2022/05/13 04:58:25;;;;;;;12.23;8.40;;;11.10;99.90;;;;;;5032056;28;21361;-83
2022/05/13 05:00:52;;;;;;;9.35;8.27;;;11.60;99.90;;;;;;5033454;28;20402;-83
2022/05/13 05:03:20;;;;;;;10.23;8.32;;;12.00;99.90;;;;;;5053574;28;20379;-84
2022/05/13 05:05:46;;;;;;;9.13;8.23;;;12.30;99.90;;;;;;5035963;28;20444;-84
2022/05/13 05:08:13;;;;;;;8.83;7.93;;;12.50;99.90;;;;;;5053600;28;20367;-85
2022/05/13 05:10:39;;;;;;;9.48;8.35;;;12.60;99.90;;;;;;5035621;28;20419;-84
2022/05/13 05:13:09;;;;;;;12.82;8.98;;;12.80;99.90;;;;;;5051306;28;20387;-84
2022/05/13 05:15:38;;;;;;;12.82;9.25;;;13.00;99.90;;;;;;5028121;28;20903;-83
2022/05/13 05:18:04;;;;;;;16.73;10.60;;;13.10;99.90;;;;;;5046640;28;20424;-83
2022/05/13 05:20:30;;;;;;;11.13;9.93;;;13.20;99.90;;;;;;5046066;28;20365;-83
2022/05/13 05:22:57;;;;;;;10.67;9.00;;;13.30;99.90;;;;;;5045671;28;20427;-84
2022/05/13 05:25:28;;;;;;;11.30;9.10;;;13.50;99.90;;;;;;5047659;28;20457;-83
2022/05/13 05:27:55;;;;;;;11.40;9.13;;;13.70;99.90;;;;;;5046572;28;20389;-84
2022/05/13 05:30:21;;;;;;;10.70;9.60;;;13.80;99.90;;;;;;5045376;28;20902;-82
2022/05/13 05:32:47;;;;;;;18.70;8.80;;;14.00;99.90;;;;;;5046928;28;20377;-83
2022/05/13 05:35:17;;;;;;;10.63;9.15;;;14.40;99.90;;;;;;5047138;28;20895;-83
2022/05/13 05:37:43;;;;;;;9.55;8.55;;;14.70;99.90;;;;;;5031316;28;20376;-83
2022/05/13 05:40:10;;;;;;;10.10;8.63;;;14.90;99.90;;;;;;5028571;28;20384;-82
2022/05/13 05:42:37;;;;;;;10.00;9.10;;;14.90;99.90;;;;;;5044897;28;20404;-83
2022/05/13 05:45:03;;;;;;;9.80;8.30;;;14.80;99.90;;;;;;5029381;28;20434;-82
2022/05/13 05:47:29;;;;;;;10.10;9.10;;;15.10;99.90;;;;;;5027318;28;20743;-83
2022/05/13 05:49:56;;;;;;;9.77;8.77;;;15.10;99.90;;;;;;5027269;28;20381;-83
2022/05/13 05:52:22;;;;;;;9.98;8.95;;;14.90;99.90;;;;;;5028272;28;20409;-83
2022/05/13 05:57:32;;;;;;;9.90;8.90;;;14.80;99.90;;;;;;5046049;28;20432;-84
2022/05/13 05:59:57;;;;;;;10.13;9.23;;;14.90;99.90;;;;;;5046142;28;20888;-82
2022/05/13 06:02:23;;;;;;;9.90;8.90;;;14.90;99.90;;;;;;5028401;28;20402;-83
2022/05/13 06:04:48;;;;;;;9.80;8.80;;;14.90;99.90;;;;;;5028433;28;20830;-84
2022/05/13 06:07:16;;;;;;;9.07;8.10;;;15.00;99.90;;;;;;5045481;28;20399;-82
2022/05/13 06:09:43;;;;;;;8.90;8.00;;;15.20;99.90;;;;;;5045227;28;20854;-84
2022/05/13 06:12:11;;;;;;;9.68;8.68;;;15.10;99.90;;;;;;5012283;28;20445;-85
2022/05/13 06:14:37;;;;;;;9.38;8.52;;;15.10;99.90;;;;;;5044632;28;20387;-84
2022/05/13 06:17:03;;;;;;;8.87;8.07;;;15.30;99.90;;;;;;5044166;28;20387;-84
2022/05/13 06:19:30;;;;;;;8.70;7.90;;;15.40;99.90;;;;;;5032305;28;20736;-85
2022/05/13 06:21:56;;;;;;;9.15;8.30;;;15.50;99.90;;;;;;5027957;28;20374;-85
2022/05/13 06:24:21;;;;;;;8.68;7.80;;;15.80;99.90;;;;;;5053890;28;20380;-83
2022/05/13 06:26:50;;;;;;;9.07;8.20;;;15.90;99.90;;;;;;5063571;28;20695;-84
2022/05/13 06:29:20;;;;;;;8.60;7.70;;;16.00;99.90;;;;;;5067781;28;20370;-84
2022/05/13 06:31:46;;;;;;;8.40;7.70;;;16.10;99.90;;;;;;5067141;28;20383;-84
2022/05/13 06:34:12;;;;;;;8.68;7.97;;;16.20;99.90;;;;;;5068291;28;20401;-84
2022/05/13 06:36:38;;;;;;;8.55;7.80;;;16.30;99.90;;;;;;5071218;28;20368;-85
2022/05/13 06:39:05;;;;;;;10.27;7.83;;;16.40;99.90;;;;;;5069978;28;20358;-83
2022/05/13 06:41:31;;;;;;;8.73;7.65;;;16.50;99.90;;;;;;5050470;28;20389;-83
2022/05/13 06:43:57;;;;;;;9.32;7.72;;;16.60;99.90;;;;;;5065945;28;20393;-83
2022/05/13 06:46:23;;;;;;;8.20;7.40;;;16.70;99.90;;;;;;5070728;28;20392;-84
2022/05/13 06:48:49;;;;;;;8.60;7.32;;;16.70;99.90;;;;;;5068102;28;20441;-83
2022/05/13 06:51:16;;;;;;;7.70;7.00;;;16.60;99.90;;;;;;5062645;28;20405;-86
2022/05/13 06:53:42;;;;;;;8.25;7.15;;;16.60;99.90;;;;;;5045502;28;20428;-86
2022/05/13 06:56:08;;;;;;;9.80;7.13;;;16.70;99.90;;;;;;5044872;28;20759;-85
2022/05/13 06:58:34;;;;;;;10.23;7.10;;;16.80;99.90;;;;;;5047799;28;20386;-85
2022/05/13 07:01:01;;;;;;;9.35;6.45;;;17.10;99.90;;;;;;5026458;28;20474;-85
2022/05/13 07:03:27;;;;;;;7.45;6.15;;;17.40;99.90;;;;;;5043952;28;20385;-86
2022/05/13 07:05:53;;;;;;;6.85;6.15;;;17.60;99.90;;;;;;5046608;28;20368;-85
2022/05/13 07:08:18;;;;;;;8.15;6.88;;;17.70;99.90;;;;;;5029205;28;20391;-86
2022/05/13 07:10:45;;;;;;;10.40;7.20;;;17.80;99.90;;;;;;5044735;28;20431;-84
2022/05/13 07:13:14;;;;;;;8.80;7.47;;;17.70;99.90;;;;;;5029317;28;20441;-82
2022/05/13 07:15:40;;;;;;;10.27;7.70;;;17.50;99.90;;;;;;5028572;28;20422;-85
2022/05/13 07:18:07;;;;;;;8.95;7.80;;;17.20;99.90;;;;;;5042027;28;20889;-85
2022/05/13 07:20:32;;;;;;;10.15;8.25;;;16.90;99.90;;;;;;5027850;28;20861;-86
2022/05/13 07:22:58;;;;;;;9.10;7.75;;;16.90;99.90;;;;;;5044028;28;20449;-85
2022/05/13 07:25:24;;;;;;;10.37;7.90;;;16.80;99.90;;;;;;5043170;28;20374;-84
2022/05/13 07:27:50;;;;;;;9.95;7.93;;;16.80;99.90;;;;;;5028425;28;20430;-85
2022/05/13 07:30:16;;;;;;;9.70;8.07;;;17.00;99.90;;;;;;5043300;28;20384;-82
2022/05/13 07:32:42;;;;;;;11.35;7.93;;;17.30;99.90;;;;;;5043017;28;20875;-84
2022/05/13 07:35:08;;;;;;;10.27;8.57;;;17.60;99.90;;;;;;5044894;28;20392;-85
2022/05/13 07:37:37;;;;;;;10.13;7.95;;;17.90;99.90;;;;;;5044190;28;20375;-84
2022/05/13 07:42:49;;;;;;;10.52;8.85;;;18.40;99.90;;;;;;5044599;28;20477;-83
2022/05/13 07:45:14;;;;;;;9.63;8.57;;;18.30;99.90;;;;;;5028201;28;20421;-82
2022/05/13 07:47:42;;;;;;;13.27;8.60;;;18.10;99.90;;;;;;5047027;28;20764;-83
2022/05/13 07:50:10;;;;;;;11.90;8.70;;;18.10;99.90;;;;;;5049123;28;20442;-84
2022/05/13 07:52:36;;;;;;;14.00;9.40;;;18.20;99.90;;;;;;5044139;28;20909;-83
2022/05/13 07:55:06;;;;;;;13.35;8.88;;;18.20;99.90;;;;;;5024703;28;20402;-84
2022/05/13 07:57:32;;;;;;;11.35;9.10;;;18.40;99.90;;;;;;5025214;28;20725;-84
2022/05/13 08:02:41;;;;;;;11.00;8.53;;;18.00;99.90;;;;;;5046492;28;20370;-86
2022/05/13 08:05:08;;;;;;;12.10;9.40;;;17.90;99.90;;;;;;5044404;28;20499;-84
2022/05/13 08:07:34;;;;;;;9.98;8.10;;;17.90;99.90;;;;;;5049442;28;20379;-84
2022/05/13 08:10:00;;;;;;;11.70;9.20;;;17.80;99.90;;;;;;5026049;28;20389;-84
2022/05/13 08:12:26;;;;;;;9.77;8.77;;;17.90;99.90;;;;;;5025356;28;20414;-84
2022/05/13 08:14:51;;;;;;;10.32;8.20;;;17.90;99.90;;;;;;5045094;28;20432;-83
2022/05/13 08:17:17;;;;;;;9.50;8.60;;;18.00;99.90;;;;;;5044269;28;20377;-84
2022/05/13 08:19:42;;;;;;;9.00;7.77;;;18.10;99.90;;;;;;5028515;28;20510;-85
2022/05/13 08:22:15;;;;;;;11.88;8.43;;;18.20;99.90;;;;;;5026765;28;20464;-82
2022/05/13 08:24:40;;;;;;;10.10;8.32;;;18.10;99.90;;;;;;5025599;28;20379;-83
2022/05/13 08:27:06;;;;;;;9.90;8.18;;;18.10;99.90;;;;;;5045287;28;20467;-84
2022/05/13 08:29:32;;;;;;;10.53;7.47;;;18.20;99.90;;;;;;5027133;28;20382;-83
2022/05/13 08:31:57;;;;;;;11.15;7.90;;;18.20;99.90;;;;;;5026601;28;20385;-84
2022/05/13 08:34:23;;;;;;;11.53;7.77;;;18.20;99.90;;;;;;5044090;28;20432;-85
2022/05/13 08:36:50;;;;;;;11.43;8.00;;;18.40;99.90;;;;;;5047087;28;20900;-84
2022/05/13 08:39:16;;;;;;;11.38;8.88;;;18.50;99.90;;;;;;5026275;28;20427;-82
2022/05/13 08:42:39;;;;;;;11.57;7.78;;;18.70;99.90;;;;;;5041035;28;20399;-84
2022/05/13 08:45:08;;;;;;;8.98;7.95;;;18.90;99.90;;;;;;4968656;28;20393;-85
2022/05/13 08:47:55;;;;;;;11.18;7.85;;;19.10;99.90;;;;;;4967189;28;20902;-84
2022/05/13 08:50:23;;;;;;;11.15;7.88;;;19.30;99.90;;;;;;5018186;28;20379;-83
2022/05/13 08:53:11;;;;;;;12.05;7.85;;;19.70;99.90;;;;;;5026221;28;20861;-84
2022/05/13 08:55:46;;;;;;;8.07;7.17;;;20.20;99.90;;;;;;5043134;28;20838;-84
2022/05/13 08:58:27;;;;;;;11.03;7.60;;;20.90;99.90;;;;;;5043677;28;20367;-81
2022/05/13 09:00:58;;;;;;;11.55;6.38;;;21.30;99.90;;;;;;5025549;28;20388;-85
2022/05/13 09:03:29;;;;;;;7.57;5.28;;;21.70;99.90;;;;;;5031496;28;20386;-84
2022/05/13 09:06:24;;;;;;;9.32;5.80;;;21.70;99.10;;;;;;5052174;28;20381;-85
2022/05/13 09:08:49;;;;;;;9.15;4.90;;;21.40;99.60;;;;;;5043419;28;20859;-85
2022/05/13 09:11:41;;;;;;;9.47;5.20;;;21.50;98.20;;;;;;5042459;28;20420;-85
2022/05/13 09:14:25;;;;;;;8.73;3.90;;;21.60;98.50;;;;;;5026329;28;20424;-85
2022/05/13 09:17:02;;;;;;;7.80;3.80;;;21.30;97.10;;;;;;5043914;28;20393;-83
2022/05/13 09:19:51;;;;;;;7.05;3.28;;;21.00;97.60;;;;;;5044918;28;20385;-85
2022/05/13 09:22:17;;;;;;;6.88;3.97;;;21.00;98.30;;;;;;5044365;28;20470;-84
2022/05/13 09:24:45;;;;;;;9.33;4.17;;;;;;;;;;5042431;28;20586;-85
2022/05/13 09:27:12;;;;;;;7.60;3.20;;;21.40;96.30;;;;;;5042488;28;20462;-87
2022/05/13 09:29:44;;;;;;;4.53;3.17;;;21.40;95.70;;;;;;5025121;28;20467;-84
2022/05/13 09:32:30;;;;;;;8.35;3.47;;;21.40;99.90;;;;;;5045449;28;20395;-83
2022/05/13 09:35:23;;;;;;;6.13;3.20;;;21.00;95.20;;;;;;5014639;28;20971;-86
2022/05/13 09:37:49;;;;;;;5.25;3.60;;;20.90;95.30;;;;;;5047100;28;20375;-86
2022/05/13 09:40:17;;;;;;;8.07;3.70;;;20.80;96.30;;;;;;5043742;28;20514;-86
2022/05/13 09:42:46;;;;;;;6.28;3.63;;;20.70;96.10;;;;;;5043748;28;20388;-82
2022/05/13 09:45:22;;;;;;;8.48;3.30;;;20.70;97.10;;;;;;5024894;28;20383;-84
2022/05/13 09:48:06;;;;;;;8.77;3.80;;;20.70;96.50;;;;;;5029965;28;20375;-85
2022/05/13 09:50:36;;;;;;;12.80;3.50;;;21.00;95.90;;;;;;5047636;28;20376;-85
2022/05/13 09:53:14;;;;;;;10.50;3.42;;;20.80;95.40;;;;;;5026208;28;20385;-83
2022/05/13 09:55:42;;;;;;;6.45;3.00;;;20.70;95.90;;;;;;5027881;28;20399;-85
2022/05/13 09:58:23;;;;;;;5.90;3.08;;;20.70;94.40;;;;;;5028828;28;20380;-84
2022/05/13 10:00:53;;;;;;;7.55;2.90;;;20.60;95.90;;;;;;5027224;28;20737;-84
2022/05/13 10:03:21;;;;;;;8.30;3.33;;;20.80;96.80;;;;;;5032076;28;20447;-85
2022/05/13 10:06:15;;;;;;;7.90;3.15;;;20.80;95.40;;;;;;5030434;28;20958;-84
2022/05/13 10:15:14;;;;;;;7.78;2.88;;;21.10;95.30;;;;;;5045969;28;20748;-82
2022/05/13 10:17:48;;;;;;;8.07;2.90;;;21.10;95.40;;;;;;5027379;28;20370;-82
2022/05/13 10:20:29;;;;;;;6.40;2.40;;;21.00;94.80;;;;;;5027061;28;20425;-84
2022/05/13 10:23:10;;;;;;;6.28;2.58;;;21.30;93.70;;;;;;5048536;28;20380;-82
2022/05/13 10:25:48;;;;;;;8.70;2.55;;;21.50;93.20;;;;;;5030861;28;20375;-85
2022/05/13 10:28:18;;;;;;;6.75;2.60;;;21.50;92.60;;;;;;5040974;28;20388;-87
2022/05/13 10:30:58;;;;;;;7.03;2.40;;;21.60;93.90;;;;;;5027569;28;20759;-83
2022/05/13 10:33:33;;;;;;;8.02;2.83;;;21.60;93.90;;;;;;5031937;28;20380;-84
2022/05/13 10:36:26;;;;;;;6.03;2.20;;;21.90;93.60;;;;;;5055561;28;20405;-83
2022/05/13 10:39:16;;;;;;;9.17;2.30;;;22.30;92.90;;;;;;5043780;28;20380;-83
2022/05/13 10:41:57;;;;;;;7.65;2.22;;;22.30;91.90;;;;;;5026060;28;20881;-85
2022/05/13 10:44:32;;;;;;;5.57;2.33;;;22.30;92.90;;;;;;5025828;28;20376;-85
2022/05/13 10:47:01;;;;;;;7.50;2.58;;;22.10;91.00;;;;;;5023432;28;20386;-85
2022/05/13 10:49:43;;;;;;;8.25;2.20;;;21.80;90.40;;;;;;5028654;28;20368;-85
2022/05/13 10:52:32;;;;;;;8.07;2.38;;;21.50;92.40;;;;;;5014083;28;20450;-85
2022/05/13 10:55:28;;;;;;;6.65;2.72;;;21.70;92.80;;;;;;5046217;28;20420;-86
2022/05/13 10:58:18;;;;;;;8.70;3.33;;;22.00;90.70;;;;;;5036600;28;20399;-87
2022/05/13 11:00:59;;;;;;;9.25;3.20;;;21.90;89.80;;;;;;5046618;28;20372;-86
2022/05/13 11:03:34;;;;;;;9.77;2.70;;;22.30;86.70;;;;;;5045154;28;20942;-85
2022/05/13 11:06:21;;;;;;;16.10;3.20;;;;;;;;;;5029116;28;20374;-85
2022/05/13 11:08:59;;;;;;;9.32;2.75;;;;;;;;;;5029421;28;20460;-87
2022/05/13 11:11:31;;;;;;;8.68;2.33;;;;;;;;;;5043752;28;20367;-85
2022/05/13 11:14:22;;;;;;;11.38;2.60;;;21.90;84.20;;;;;;5044762;28;20384;-86
2022/05/13 11:17:12;;;;;;;9.48;2.67;;;21.70;87.80;;;;;;5032645;28;20376;-85
2022/05/13 11:20:11;;;;;;;6.13;2.65;;;21.30;85.00;;;;;;5055378;28;20756;-85
2022/05/13 11:22:46;;;;;;;10.80;3.10;;;20.70;86.10;;;;;;5044841;28;20382;-84
2022/05/13 11:28:28;;;;;;;8.25;2.58;;;20.10;87.90;;;;;;5048673;28;20443;-86
2022/05/13 11:31:32;;;;;;;8.75;2.53;;;20.10;90.40;;;;;;5047379;28;20388;-88
2022/05/13 11:34:08;;;;;;;6.78;2.38;;;20.10;89.70;;;;;;5054524;28;20971;-83
2022/05/13 11:36:58;;;;;;;10.48;2.58;;;20.10;90.00;;;;;;5027864;28;20377;-85
2022/05/13 11:40:06;;;;;;;8.40;2.83;;;20.10;90.20;;;;;;5027164;28;20400;-85
2022/05/13 11:42:32;;;;;;;8.90;2.75;;;19.90;90.40;;;;;;5019056;28;20389;-87
2022/05/13 11:45:09;;;;;;;8.90;2.90;;;20.20;89.40;;;;;;5044736;28;20930;-85
2022/05/13 11:47:45;;;;;;;10.38;3.35;;;20.20;88.10;;;;;;5044928;28;20850;-86
2022/05/13 11:50:11;;;;;;;6.40;2.60;;;20.20;88.10;;;;;;5025472;28;20396;-85
2022/05/13 11:52:43;;;;;;;7.72;2.58;;;20.10;89.00;;;;;;5031682;28;20531;-84
2022/05/13 11:55:16;;;;;;;8.55;2.70;;;20.00;89.40;;;;;;5025363;28;20997;-85
2022/05/13 11:57:54;;;;;;;6.40;2.67;;;20.00;86.70;;;;;;5045017;28;20384;-82
2022/05/13 12:00:33;;;;;;;6.47;2.75;;;20.10;88.00;;;;;;5044309;28;20392;-84
2022/05/13 12:03:07;;;;;;;7.50;2.57;;;20.20;90.40;;;;;;5027221;28;20390;-86
2022/05/13 12:05:46;;;;;;;7.85;2.80;;;20.40;90.00;;;;;;5043437;28;20369;-86
2022/05/13 12:08:38;;;;;;;7.78;2.80;;;20.40;89.30;;;;;;5026636;28;20403;-86
2022/05/13 12:11:19;;;;;;;7.53;2.90;;;20.20;87.50;;;;;;5026764;28;20383;-85
2022/05/13 12:14:07;;;;;;;7.57;2.83;;;20.20;89.10;;;;;;5025344;28;20882;-84
2022/05/13 12:16:45;;;;;;;8.15;2.63;;;20.40;87.80;;;;;;5047333;28;20384;-84
2022/05/13 12:19:41;;;;;;;6.28;2.40;;;20.70;90.80;;;;;;5028716;28;20441;-84
2022/05/13 12:22:52;;;;;;;6.95;2.08;;;20.70;85.40;;;;;;5045276;28;20721;-85
2022/05/13 12:25:26;;;;;;;7.38;2.22;;;20.30;87.70;;;;;;5046243;28;20863;-84
2022/05/13 12:28:03;;;;;;;7.07;2.50;;;20.10;90.10;;;;;;5045807;28;20450;-83
2022/05/13 12:30:41;;;;;;;7.93;2.50;;;20.00;90.40;;;;;;5027696;28;20411;-86
2022/05/13 12:33:34;;;;;;;8.43;2.63;;;19.80;90.30;;;;;;5043003;28;20376;-86
2022/05/13 12:39:03;;;;;;;7.70;2.58;;;19.20;91.40;;;;;;5043025;28;20873;-84
2022/05/13 12:42:05;;;;;;;7.60;2.85;;;19.00;91.40;;;;;;5053422;28;20468;-87
2022/05/13 12:44:31;;;;;;;10.13;2.80;;;18.60;91.50;;;;;;5026758;28;20409;-85
2022/05/13 12:47:19;;;;;;;10.32;3.10;;;18.50;92.00;;;;;;5044137;28;20367;-84
2022/05/13 12:49:48;;;;;;;6.38;2.67;;;18.30;92.20;;;;;;5043249;28;20378;-84
2022/05/13 12:52:22;;;;;;;7.37;2.83;;;18.10;93.30;;;;;;5045743;28;20378;-86
2022/05/13 12:54:56;;;;;;;7.85;2.75;;;18.00;93.20;;;;;;5026124;28;20887;-84
2022/05/13 12:57:33;;;;;;;8.52;3.20;;;18.00;93.60;;;;;;5054866;28;20380;-84
2022/05/13 13:00:00;;;;;;;9.07;2.83;;;18.00;93.00;;;;;;5043537;28;20744;-84
2022/05/13 13:02:30;;;;;;;9.02;3.00;;;18.20;93.40;;;;;;5027129;28;20375;-83
2022/05/13 13:05:03;;;;;;;12.50;3.07;;;18.40;93.70;;;;;;5010964;28;20388;-83
2022/05/13 13:07:32;;;;;;;7.93;2.80;;;18.90;93.70;;;;;;5043156;28;20406;-86
2022/05/13 13:09:58;;;;;;;7.93;2.55;;;19.60;92.90;;;;;;5025193;28;20378;-86
2022/05/13 13:12:46;;;;;;;8.67;3.10;;;20.20;93.90;;;;;;5046102;28;21050;-83
2022/05/13 13:15:33;;;;;;;8.45;2.60;;;20.80;93.00;;;;;;5025740;28;20405;-87
2022/05/13 13:18:04;;;;;;;9.10;2.63;;;21.20;91.60;;;;;;5024512;28;20443;-85
2022/05/13 13:20:31;;;;;;;7.97;2.80;;;21.30;90.50;;;;;;5026162;28;20392;-82
2022/05/13 13:23:11;;;;;;;7.47;3.10;;;21.30;90.20;;;;;;5027870;28;20367;-86
2022/05/13 13:25:41;;;;;;;9.70;2.90;;;21.30;90.70;;;;;;5046068;28;20378;-85
2022/05/13 13:28:29;;;;;;;9.85;3.28;;;21.30;91.50;;;;;;5039973;28;20457;-86
2022/05/13 13:30:57;;;;;;;13.77;3.03;;;21.20;91.10;;;;;;5024424;28;20387;-84
2022/05/13 13:33:29;;;;;;;7.95;2.60;;;21.10;89.70;;;;;;5026428;28;20379;-84
2022/05/13 13:36:11;;;;;;;8.10;2.67;;;20.70;89.00;;;;;;5022027;28;20417;-85